Time;durP1;ratioP1;P1;durP2;ratioP2;P2;SDS_P1;SDS_P2;PMS_P1;PMS_P2;Temp;Humidity;BMP_temperature;BMP_pressure;BME280_temperature;BME280_humidity;BME280_pressure;Samples;Min_cycle;Max_cycle;Signal;HPM_P1;HPM_P2
2022/12/20 00:00:48;;;;;;;6.87;2.73;;;;;;;0.19;nan;-23820.41;5034287;28;20174;-70
2022/12/20 00:03:14;;;;;;;3.83;2.67;;;;;;;0.39;nan;-23826.13;5034192;28;20248;-70
2022/12/20 00:05:41;;;;;;;6.73;2.90;;;;;;;-0.05;nan;-23813.69;5034206;28;20223;-69
2022/12/20 00:08:07;;;;;;;3.00;2.70;;;;;;;0.22;nan;-23821.25;5034789;28;20181;-70
2022/12/20 00:10:36;;;;;;;3.23;2.13;;;;;;;-0.14;nan;-23811.25;5034407;28;20183;-70
2022/12/20 00:13:02;;;;;;;4.33;3.47;;;;;;;0.15;nan;-23819.25;5034445;28;20533;-70
2022/12/20 00:15:28;;;;;;;3.77;2.90;;;;;;;0.13;nan;-23818.84;5033614;28;20186;-71
2022/12/20 00:17:53;;;;;;;5.37;3.30;;;;;;;0.09;nan;-23817.53;5033005;28;20215;-71
2022/12/20 00:20:18;;;;;;;10.60;3.40;;;;;;;0.17;nan;-23819.97;5034248;28;20259;-70
2022/12/20 00:22:44;;;;;;;7.83;2.23;;;;;;;0.23;nan;-23821.56;5034143;28;20626;-71
2022/12/20 00:25:10;;;;;;;3.47;2.93;;;;;;;-0.01;nan;-23814.97;5033484;28;20179;-70
2022/12/20 00:27:36;;;;;;;3.60;3.30;;;;;;;-0.02;nan;-23814.69;5033916;28;20641;-70
2022/12/20 00:30:01;;;;;;;4.40;2.60;;;;;;;-0.18;nan;-23809.94;5034184;28;20622;-70
2022/12/20 00:32:26;;;;;;;5.27;2.77;;;;;;;-0.02;nan;-23814.69;5033869;28;20639;-70
2022/12/20 00:34:52;;;;;;;2.17;2.07;;;;;;;-0.23;nan;-23808.66;5033930;28;20165;-71
2022/12/20 00:37:17;;;;;;;5.40;3.53;;;;;;;-0.14;nan;-23811.09;5033316;28;20190;-71
2022/12/20 00:39:43;;;;;;;2.30;2.10;;;;;;;-0.59;nan;-23798.34;5033687;28;20275;-70
2022/12/20 00:42:08;;;;;;;2.83;2.50;;;;;;;-0.21;nan;-23809.22;5033834;28;20660;-70
2022/12/20 00:44:33;;;;;;;3.30;2.67;;;;;;;-0.19;nan;-23809.81;5033541;28;20214;-70
2022/12/20 00:46:59;;;;;;;3.77;2.70;;;;;;;-0.45;nan;-23802.34;5033390;28;20180;-71
2022/12/20 00:49:24;;;;;;;1.93;1.83;;;;;;;-0.11;nan;-23812.09;5033568;28;20175;-69
2022/12/20 00:51:50;;;;;;;3.20;2.57;;;;;;;-0.41;nan;-23803.34;5033968;28;20177;-72
2022/12/20 00:54:15;;;;;;;2.63;2.03;;;;;;;-0.69;nan;-23795.47;5037939;28;20282;-70
2022/12/20 00:56:40;;;;;;;2.73;2.53;;;;;;;-0.73;nan;-23794.47;5032998;28;20326;-70
2022/12/20 00:59:06;;;;;;;3.90;2.37;;;;;;;-0.90;nan;-23789.59;5031485;28;20177;-70
2022/12/20 01:01:33;;;;;;;4.50;3.07;;;;;;;-0.79;nan;-23792.63;5033382;28;20180;-73
2022/12/20 01:03:59;;;;;;;4.50;3.07;;;;;;;-0.70;nan;-23795.19;5032585;28;20222;-71
2022/12/20 01:06:25;;;;;;;4.53;3.40;;;;;;;-0.95;nan;-23788.31;5033107;28;20175;-70
2022/12/20 01:08:53;;;;;;;5.07;2.87;;;;;;;-0.85;nan;-23790.91;5032950;28;20195;-70
2022/12/20 01:11:24;;;;;;;7.53;3.80;;;;;;;-0.92;nan;-23789.03;5035380;28;20185;-70
2022/12/20 01:13:52;;;;;;;3.37;3.07;;;;;;;-0.88;nan;-23790.31;5032814;28;20544;-71
2022/12/20 01:16:24;;;;;;;1.87;1.77;;;;;;;-1.53;nan;-23771.69;5032874;28;20231;-71
2022/12/20 01:18:51;;;;;;;3.30;3.00;;;;;;;-1.62;nan;-23769.22;5032509;28;20179;-69
2022/12/20 01:21:18;;;;;;;3.10;2.80;;;;;;;-1.37;nan;-23776.25;5032394;28;20182;-71
2022/12/20 01:23:45;;;;;;;5.97;3.03;;;;;;;-1.23;nan;-23780.28;5032277;28;20211;-70
2022/12/20 01:26:13;;;;;;;3.83;2.77;;;;;;;-1.31;nan;-23778.00;5032616;28;20666;-70
2022/12/20 01:28:43;;;;;;;2.03;1.60;;;;;;;-1.69;nan;-23767.22;5030797;28;20171;-70
2022/12/20 01:31:12;;;;;;;3.57;2.30;;;;;;;-1.89;nan;-23761.47;5032795;28;20176;-71
2022/12/20 01:33:37;;;;;;;5.90;3.20;;;;;;;-1.28;nan;-23778.84;5032385;28;20179;-70
2022/12/20 01:36:11;;;;;;;3.53;2.43;;;;;;;-1.71;nan;-23766.50;5032193;28;20202;-70
2022/12/20 01:38:37;;;;;;;3.07;2.67;;;;;;;-1.84;nan;-23762.91;5032844;28;20186;-69
2022/12/20 01:41:03;;;;;;;2.67;2.47;;;;;;;-1.71;nan;-23766.66;5032480;28;20658;-69
2022/12/20 01:43:49;;;;;;;1.70;1.60;;;;;;;-1.89;nan;-23761.63;5032641;28;20250;-70
2022/12/20 01:46:15;;;;;;;2.23;2.03;;;;;;;-1.50;nan;-23772.53;5032429;28;20169;-70
2022/12/20 01:48:46;;;;;;;5.40;2.40;;;;;;;-1.62;nan;-23769.09;5037146;28;20254;-70
2022/12/20 01:51:12;;;;;;;2.83;2.63;;;;;;;-1.52;nan;-23771.97;5032189;28;20183;-70
2022/12/20 01:53:38;;;;;;;4.07;2.00;;;;;;;-1.70;nan;-23766.78;5031764;28;20167;-71
2022/12/20 01:56:06;;;;;;;2.17;1.97;;;;;;;-1.62;nan;-23769.22;5032065;28;20186;-70
2022/12/20 01:58:34;;;;;;;3.03;2.47;;;;;;;-1.93;nan;-23760.34;5032368;28;20254;-70
2022/12/20 02:00:59;;;;;;;3.77;2.57;;;;;;;-1.72;nan;-23766.22;5032317;28;20167;-70
2022/12/20 02:03:25;;;;;;;4.70;2.97;;;;;;;-2.20;nan;-23752.56;5031895;28;20234;-70
2022/12/20 02:05:50;;;;;;;2.47;2.27;;;;;;;-2.17;nan;-23753.44;5031812;28;20267;-70
2022/12/20 02:08:18;;;;;;;2.23;2.03;;;;;;;-2.21;nan;-23752.44;5032015;28;20175;-70
2022/12/20 02:11:13;;;;;;;2.73;2.50;;;;;;;-1.86;nan;-23762.50;5032135;28;20259;-71
2022/12/20 02:14:14;;;;;;;3.43;2.80;;;;;;;-2.21;nan;-23752.44;5030405;28;20632;-70
2022/12/20 02:16:56;;;;;;;3.63;2.20;;;;;;;-1.66;nan;-23767.94;5032084;28;20190;-70
2022/12/20 02:19:31;;;;;;;2.80;2.57;;;;;;;-1.51;nan;-23772.25;5032448;28;20181;-70
2022/12/20 02:22:05;;;;;;;2.83;2.63;;;;;;;-1.41;nan;-23775.25;5031070;28;20213;-69
2022/12/20 02:24:42;;;;;;;2.50;2.23;;;;;;;-2.19;nan;-23752.88;5031623;28;20175;-70
2022/12/20 02:27:25;;;;;;;4.73;2.77;;;;;;;-1.75;nan;-23765.50;5030970;28;20589;-70
2022/12/20 02:30:15;;;;;;;2.97;2.57;;;;;;;-2.31;nan;-23749.56;5031670;28;20171;-71
2022/12/20 02:33:02;;;;;;;3.30;2.53;;;;;;;-2.13;nan;-23754.75;5031422;28;20179;-69
2022/12/20 02:35:31;;;;;;;1.63;1.53;;;;;;;-2.01;nan;-23758.03;5030033;28;20665;-69
2022/12/20 02:37:59;;;;;;;4.77;3.10;;;;;;;-5.93;nan;-23646.66;5031267;28;20195;-70
2022/12/20 02:40:39;;;;;;;2.53;2.27;;;;;;;-2.08;nan;-23756.03;5032218;28;20181;-71
2022/12/20 02:45:56;;;;;;;2.17;1.97;;;;;;;-2.33;nan;-23749.00;5035077;28;20224;-69
2022/12/20 02:48:25;;;;;;;7.27;2.23;;;;;;;-2.36;nan;-23748.13;5035470;28;20172;-70
2022/12/20 02:50:52;;;;;;;2.23;2.10;;;;;;;-1.98;nan;-23759.03;5035741;28;20184;-70
2022/12/20 02:53:19;;;;;;;3.40;2.37;;;;;;;-1.74;nan;-23765.66;5034997;28;20244;-70
2022/12/20 02:55:59;;;;;;;2.57;2.37;;;;;;;-1.94;nan;-23760.06;5034975;28;20176;-70
2022/12/20 02:58:43;;;;;;;4.47;2.47;;;;;;;-2.40;nan;-23746.97;5035598;28;20163;-70
2022/12/20 03:01:15;;;;;;;4.90;3.30;;;;;;;-2.22;nan;-23752.28;5036713;28;20189;-69
2022/12/20 03:03:40;;;;;;;5.20;3.37;;;;;;;-2.44;nan;-23745.81;5035376;28;20227;-70
2022/12/20 03:06:06;;;;;;;2.63;2.43;;;;;;;-2.31;nan;-23749.56;5035260;28;20250;-73
2022/12/20 03:08:31;;;;;;;5.00;2.83;;;;;;;-2.55;nan;-23742.81;5035303;28;20183;-70
2022/12/20 03:10:57;;;;;;;6.00;3.53;;;;;;;-2.22;nan;-23752.28;5036037;28;20183;-71
2022/12/20 03:13:24;;;;;;;4.23;2.83;;;;;;;-3.52;nan;-23715.06;5035201;28;20185;-70
2022/12/20 03:15:49;;;;;;;5.73;3.73;;;;;;;-2.55;nan;-23742.66;5035310;28;20172;-70
2022/12/20 03:18:15;;;;;;;4.83;3.80;;;;;;;-1.93;nan;-23760.47;5034962;28;20168;-70
2022/12/20 03:20:41;;;;;;;2.60;2.17;;;;;;;-1.96;nan;-23759.63;5033782;28;20190;-70
2022/12/20 03:23:07;;;;;;;6.43;3.53;;;;;;;-2.09;nan;-23755.88;5035070;28;20202;-71
2022/12/20 03:25:32;;;;;;;5.07;2.77;;;;;;;-1.95;nan;-23759.75;5035275;28;20587;-71
2022/12/20 03:27:58;;;;;;;4.30;3.10;;;;;;;-1.77;nan;-23764.78;5033610;28;20178;-70
2022/12/20 03:30:23;;;;;;;3.87;2.80;;;;;;;-1.75;nan;-23765.34;5035055;28;20179;-70
2022/12/20 03:32:49;;;;;;;3.53;3.03;;;;;;;-1.97;nan;-23759.19;5035032;28;20609;-71
2022/12/20 03:35:15;;;;;;;3.03;2.53;;;;;;;-1.56;nan;-23770.81;5034918;28;20512;-70
2022/12/20 03:37:40;;;;;;;4.43;3.10;;;;;;;-1.76;nan;-23765.06;5034832;28;20581;-70
2022/12/20 03:40:08;;;;;;;6.87;2.97;;;;;;;-2.63;nan;-23740.50;5033266;28;20182;-70
2022/12/20 03:42:34;;;;;;;3.17;2.90;;;;;;;-1.85;nan;-23762.63;5034780;28;20225;-70
2022/12/20 03:44:59;;;;;;;15.30;3.87;;;;;;;-1.91;nan;-23760.91;5034253;28;20163;-72
2022/12/20 03:47:25;;;;;;;3.13;2.83;;;;;;;-1.95;nan;-23759.91;5034694;28;20258;-70
2022/12/20 03:49:51;;;;;;;4.53;3.60;;;;;;;-2.49;nan;-23744.38;5034829;28;20624;-70
2022/12/20 03:52:16;;;;;;;8.23;4.50;;;;;;;-1.99;nan;-23758.63;5034546;28;20160;-70
2022/12/20 03:54:42;;;;;;;3.37;2.80;;;;;;;-2.18;nan;-23753.31;5034643;28;20159;-69
2022/12/20 03:57:07;;;;;;;6.30;4.73;;;;;;;-2.01;nan;-23758.19;5034341;28;20692;-70
2022/12/20 03:59:33;;;;;;;7.27;4.40;;;;;;;-2.13;nan;-23754.75;5034482;28;20624;-70
2022/12/20 04:01:58;;;;;;;5.87;3.50;;;;;;;-1.89;nan;-23761.47;5033853;28;20182;-69
2022/12/20 04:04:23;;;;;;;4.33;3.57;;;;;;;-1.50;nan;-23772.53;5034447;28;20304;-71
2022/12/20 04:06:49;;;;;;;4.53;3.13;;;;;;;-2.08;nan;-23756.16;5034599;28;20218;-70
2022/12/20 04:09:15;;;;;;;3.03;2.80;;;;;;;-2.19;nan;-23752.88;5033963;28;20214;-70
2022/12/20 04:11:40;;;;;;;2.83;2.57;;;;;;;-2.15;nan;-23754.00;5034316;28;20195;-70
2022/12/20 04:14:06;;;;;;;3.13;2.80;;;;;;;-2.30;nan;-23749.84;5037226;28;20270;-70
2022/12/20 04:16:32;;;;;;;13.60;3.10;;;;;;;-1.56;nan;-23770.81;5037145;28;20202;-71
2022/12/20 04:18:57;;;;;;;4.40;3.53;;;;;;;-1.75;nan;-23765.34;5037337;28;20209;-70
2022/12/20 04:21:28;;;;;;;4.23;3.83;;;;;;;-1.82;nan;-23763.50;5036864;28;20630;-70
2022/12/20 04:23:54;;;;;;;6.27;4.33;;;;;;;-1.98;nan;-23758.91;5036647;28;20175;-71
2022/12/20 04:26:20;;;;;;;4.50;3.83;;;;;;;-1.94;nan;-23760.19;5036785;28;20673;-71
2022/12/20 04:28:45;;;;;;;6.00;3.70;;;;;;;-1.71;nan;-23766.50;5037043;28;20187;-70
2022/12/20 04:31:11;;;;;;;3.07;2.87;;;;;;;-2.18;nan;-23753.31;5035839;28;20218;-70
2022/12/20 04:33:37;;;;;;;3.93;2.90;;;;;;;-1.65;nan;-23768.38;5035956;28;20186;-70
2022/12/20 04:36:02;;;;;;;3.80;3.03;;;;;;;;;;5036362;28;20202;-69
2022/12/20 04:38:27;;;;;;;6.30;3.63;;;;;;;-1.33;nan;-23777.41;5035774;28;20193;-70
2022/12/20 04:40:54;;;;;;;4.30;2.90;;;;;;;-1.47;nan;-23773.53;5037015;28;20240;-70
2022/12/20 04:43:20;;;;;;;5.20;2.97;;;;;;;-1.90;nan;-23761.34;5036217;28;20183;-69
2022/12/20 04:45:47;;;;;;;3.13;2.70;;;;;;;-1.63;nan;-23768.94;5036105;28;20715;-71
2022/12/20 04:48:13;;;;;;;5.40;3.43;;;;;;;-1.70;nan;-23766.78;5035975;28;20180;-70
2022/12/20 04:50:39;;;;;;;3.40;2.37;;;;;;;-1.63;nan;-23768.94;5036120;28;20194;-71
2022/12/20 04:55:49;;;;;;;4.73;2.67;;;;;;;-2.08;nan;-23756.03;5035308;28;20583;-70
2022/12/20 04:58:15;;;;;;;3.57;2.53;;;;;;;-1.71;nan;-23766.50;5034943;28;20215;-71
2022/12/20 05:00:41;;;;;;;4.47;2.83;;;;;;;-1.76;nan;-23765.06;5035594;28;20279;-70
2022/12/20 05:03:06;;;;;;;3.73;3.10;;;;;;;-1.85;nan;-23762.78;5036452;28;20666;-70
2022/12/20 05:05:32;;;;;;;5.63;3.17;;;;;;;-2.01;nan;-23758.03;5034423;28;20180;-70
2022/12/20 05:07:57;;;;;;;3.57;2.87;;;;;;;-1.84;nan;-23762.91;5035642;28;20642;-70
2022/12/20 05:10:22;;;;;;;4.70;2.93;;;;;;;-3.78;nan;-23707.88;5035302;28;20233;-71
2022/12/20 05:12:48;;;;;;;3.53;2.83;;;;;;;-2.02;nan;-23757.75;5034402;28;20611;-71
2022/12/20 05:15:13;;;;;;;3.10;2.80;;;;;;;-2.04;nan;-23757.31;5033103;28;20635;-72
2022/12/20 05:17:39;;;;;;;5.70;2.73;;;;;;;-2.05;nan;-23757.03;5032878;28;20295;-71
2022/12/20 05:20:06;;;;;;;16.13;3.40;;;;;;;-2.30;nan;-23749.84;5032164;28;20211;-70
2022/12/20 05:27:59;;;;;;;3.33;2.83;;;;;;;-2.11;nan;-23755.16;5032100;28;20170;-71
2022/12/20 05:30:25;;;;;;;6.50;3.03;;;;;;;-2.56;nan;-23742.38;5030696;28;20179;-70
2022/12/20 05:32:51;;;;;;;4.70;3.17;;;;;;;-2.60;nan;-23741.38;5033055;28;20255;-70
2022/12/20 05:35:16;;;;;;;4.83;3.40;;;;;;;-2.38;nan;-23747.56;5032232;28;20163;-71
2022/12/20 05:37:42;;;;;;;4.10;2.97;;;;;;;-2.30;nan;-23749.84;5030681;28;20207;-71
2022/12/20 05:40:08;;;;;;;4.93;3.90;;;;;;;-2.38;nan;-23747.69;5031962;28;20178;-71
2022/12/20 05:42:34;;;;;;;5.53;3.00;;;;;;;-2.36;nan;-23748.13;5032092;28;20553;-69
2022/12/20 05:45:02;;;;;;;3.37;3.07;;;;;;;-2.73;nan;-23737.78;5031925;28;20189;-70
2022/12/20 05:47:29;;;;;;;11.03;4.00;;;;;;;-2.81;nan;-23735.47;5032008;28;20273;-71
2022/12/20 05:49:55;;;;;;;6.43;2.97;;;;;;;-2.30;nan;-23749.84;5032185;28;20200;-70
2022/12/20 05:52:20;;;;;;;2.60;2.40;;;;;;;-2.29;nan;-23750.13;5031665;28;20167;-70
2022/12/20 05:54:46;;;;;;;5.87;3.80;;;;;;;-2.73;nan;-23737.66;5031611;28;20620;-71
2022/12/20 05:57:11;;;;;;;7.00;4.13;;;;;;;-2.28;nan;-23750.56;5031595;28;20300;-70
2022/12/20 05:59:37;;;;;;;4.80;4.33;;;;;;;-2.43;nan;-23746.13;5031582;28;20596;-70
2022/12/20 06:02:03;;;;;;;5.07;3.40;;;;;;;-2.51;nan;-23743.97;5030720;28;20706;-70
2022/12/20 06:04:30;;;;;;;4.60;3.47;;;;;;;-2.18;nan;-23753.31;5030829;28;20228;-71
2022/12/20 06:06:55;;;;;;;4.67;3.70;;;;;;;-2.31;nan;-23749.72;5030823;28;20188;-71
2022/12/20 06:09:21;;;;;;;4.90;3.60;;;;;;;-2.42;nan;-23746.56;5031213;28;20175;-70
2022/12/20 06:11:46;;;;;;;8.47;4.77;;;;;;;-2.44;nan;-23745.81;5034498;28;20645;-70
2022/12/20 06:14:12;;;;;;;5.37;3.33;;;;;;;-2.33;nan;-23749.00;5030575;28;20197;-72
2022/12/20 06:16:37;;;;;;;5.77;4.50;;;;;;;-2.37;nan;-23748.00;5030236;28;20195;-70
2022/12/20 06:19:03;;;;;;;4.37;2.93;;;;;;;-1.74;nan;-23765.66;5030970;28;20337;-74
2022/12/20 06:21:28;;;;;;;4.00;3.30;;;;;;;-2.23;nan;-23751.88;5030841;28;20179;-72
2022/12/20 06:23:54;;;;;;;8.83;4.40;;;;;;;-1.83;nan;-23763.34;5031078;28;20246;-70
2022/12/20 06:26:22;;;;;;;6.30;3.90;;;;;;;-1.90;nan;-23761.34;5030500;28;20268;-71
2022/12/20 06:28:51;;;;;;;5.43;3.63;;;;;;;-1.83;nan;-23763.19;5030881;28;20179;-70
2022/12/20 06:31:17;;;;;;;11.63;6.27;;;;;;;-1.69;nan;-23767.22;5030071;28;20187;-69
2022/12/20 06:33:43;;;;;;;12.37;4.90;;;;;;;-1.69;nan;-23767.22;5030609;28;20180;-70
2022/12/20 06:36:09;;;;;;;6.43;4.30;;;;;;;-1.77;nan;-23764.94;5030617;28;20193;-70
2022/12/20 06:38:34;;;;;;;8.27;5.10;;;;;;;-1.91;nan;-23761.06;5032957;28;20616;-71
2022/12/20 06:41:00;;;;;;;4.63;3.43;;;;;;;-1.42;nan;-23774.97;5030970;28;20207;-70
2022/12/20 06:43:25;;;;;;;3.37;3.07;;;;;;;-1.34;nan;-23777.25;5029408;28;20174;-71
2022/12/20 06:45:50;;;;;;;7.67;4.70;;;;;;;;;;5030859;28;20182;-69
2022/12/20 06:48:16;;;;;;;4.77;3.77;;;;;;;-1.63;nan;-23768.94;5030758;28;20179;-69
2022/12/20 06:50:41;;;;;;;6.07;3.63;;;;;;;-1.58;nan;-23770.25;5028926;28;20207;-70
2022/12/20 06:53:07;;;;;;;5.77;3.87;;;;;;;-1.18;nan;-23781.56;5030355;28;20221;-69
2022/12/20 06:55:32;;;;;;;3.17;2.87;;;;;;;-1.48;nan;-23773.25;5030646;28;20191;-69
2022/12/20 06:57:58;;;;;;;5.87;4.67;;;;;;;-1.03;nan;-23785.88;5035906;28;20211;-70
2022/12/20 07:00:23;;;;;;;4.90;3.07;;;;;;;-1.15;nan;-23782.56;5030599;28;20263;-69
2022/12/20 07:02:49;;;;;;;6.90;4.30;;;;;;;-1.02;nan;-23786.31;5030063;28;20181;-71
2022/12/20 07:05:14;;;;;;;7.03;4.37;;;;;;;-0.99;nan;-23787.03;5030073;28;20289;-70
2022/12/20 07:07:40;;;;;;;3.57;3.27;;;;;;;-0.76;nan;-23793.47;5030644;28;20172;-70
2022/12/20 07:10:06;;;;;;;4.50;3.63;;;;;;;-0.91;nan;-23789.31;5030658;28;20172;-70
2022/12/20 07:12:32;;;;;;;6.27;3.00;;;;;;;-0.60;nan;-23798.06;5030485;28;20215;-69
2022/12/20 07:14:58;;;;;;;6.43;4.23;;;;;;;-0.58;nan;-23798.63;5030773;28;20207;-71
2022/12/20 07:17:23;;;;;;;5.53;4.23;;;;;;;-0.66;nan;-23796.47;5030578;28;20208;-70
2022/12/20 07:19:49;;;;;;;3.93;3.43;;;;;;;-0.37;nan;-23804.50;5029948;28;20200;-70
2022/12/20 07:22:14;;;;;;;8.57;4.07;;;;;;;-0.72;nan;-23794.63;5030324;28;20180;-70
2022/12/20 07:24:39;;;;;;;5.67;3.63;;;;;;;-0.21;nan;-23809.22;5030429;28;20178;-70
2022/12/20 07:27:05;;;;;;;4.37;3.33;;;;;;;-0.54;nan;-23799.78;5032414;28;20212;-69
2022/12/20 07:29:30;;;;;;;8.17;3.73;;;;;;;-0.18;nan;-23810.09;5034276;28;20668;-70
2022/12/20 07:31:56;;;;;;;3.03;2.73;;;;;;;-0.03;nan;-23814.38;5032753;28;20191;-70
2022/12/20 07:34:21;;;;;;;6.70;4.10;;;;;;;0.06;nan;-23816.69;5034026;28;20267;-70
2022/12/20 07:36:46;;;;;;;6.40;4.00;;;;;;;0.13;nan;-23818.84;5033626;28;20558;-71
2022/12/20 07:39:12;;;;;;;4.70;2.50;;;;;;;-0.09;nan;-23812.66;5033699;28;20184;-70
2022/12/20 07:41:37;;;;;;;6.03;3.60;;;;;;;-0.21;nan;-23809.09;5033745;28;20180;-69
2022/12/20 07:44:03;;;;;;;2.93;2.73;;;;;;;0.08;nan;-23817.25;5033754;28;20178;-69
2022/12/20 07:46:29;;;;;;;3.73;3.30;;;;;;;0.27;nan;-23822.84;5033917;28;20208;-70
2022/12/20 07:48:55;;;;;;;3.97;2.87;;;;;;;0.07;nan;-23816.97;5033295;28;20285;-71
2022/12/20 07:51:23;;;;;;;10.53;4.53;;;;;;;0.41;nan;-23826.72;5033566;28;20220;-70
2022/12/20 07:53:57;;;;;;;5.03;2.73;;;;;;;0.18;nan;-23820.13;5033967;28;20158;-70
2022/12/20 07:56:23;;;;;;;6.90;4.40;;;;;;;0.89;nan;-23840.28;5033253;28;20234;-70
2022/12/20 07:58:51;;;;;;;5.40;3.13;;;;;;;0.29;nan;-23823.28;5032656;28;20249;-70
2022/12/20 08:01:17;;;;;;;7.20;3.63;;;;;;;0.50;nan;-23829.13;5032908;28;20176;-71
2022/12/20 08:03:47;;;;;;;3.73;3.03;;;;;;;0.78;nan;-23837.28;5032948;28;20229;-70
2022/12/20 08:06:14;;;;;;;14.63;3.80;;;;;;;0.86;nan;-23839.59;5033094;28;20175;-69
2022/12/20 08:08:44;;;;;;;5.87;4.03;;;;;;;1.07;nan;-23845.31;5033100;28;20185;-69
2022/12/20 08:11:11;;;;;;;8.07;4.03;;;;;;;1.14;nan;-23847.44;5033853;28;20215;-70
2022/12/20 08:13:37;;;;;;;7.37;4.40;;;;;;;1.19;nan;-23848.88;5033705;28;20644;-70
2022/12/20 08:16:03;;;;;;;5.13;3.60;;;;;;;1.10;nan;-23846.31;5033243;28;20182;-69
2022/12/20 08:18:28;;;;;;;7.77;3.93;;;;;;;1.41;nan;-23855.03;5033536;28;20560;-69
2022/12/20 08:20:54;;;;;;;6.43;3.87;;;;;;;1.26;nan;-23850.88;5032619;28;20678;-70
2022/12/20 08:23:19;;;;;;;6.73;3.57;;;;;;;1.43;nan;-23855.47;5032733;28;20175;-71
2022/12/20 08:25:45;;;;;;;3.87;3.33;;;;;;;1.75;nan;-23864.59;5033085;28;20166;-71
2022/12/20 08:28:10;;;;;;;6.60;3.17;;;;;;;1.63;nan;-23861.31;5033287;28;20186;-70
2022/12/20 08:30:36;;;;;;;7.70;3.90;;;;;;;1.50;nan;-23857.59;5032862;28;20175;-71
2022/12/20 08:33:02;;;;;;;5.90;3.50;;;;;;;1.38;nan;-23854.03;5033109;28;20184;-71
2022/12/20 08:35:27;;;;;;;5.03;3.17;;;;;;;1.32;nan;-23852.44;5031487;28;20183;-71
2022/12/20 08:37:53;;;;;;;3.47;3.03;;;;;;;1.23;nan;-23849.88;5031747;28;20587;-71
2022/12/20 08:40:19;;;;;;;4.80;3.37;;;;;;;1.67;nan;-23862.47;5032684;28;20524;-71
2022/12/20 08:42:45;;;;;;;4.27;2.90;;;;;;;1.76;nan;-23865.03;5032195;28;20645;-71
2022/12/20 08:45:11;;;;;;;7.43;3.77;;;;;;;1.71;nan;-23863.59;5032397;28;20180;-71
2022/12/20 08:47:36;;;;;;;5.27;3.60;;;;;;;1.76;nan;-23864.88;5032549;28;20175;-69
2022/12/20 08:50:02;;;;;;;4.43;3.50;;;;;;;1.61;nan;-23860.59;5032397;28;20180;-71
2022/12/20 08:52:28;;;;;;;5.97;3.63;;;;;;;2.01;nan;-23871.88;5031138;28;20202;-70
2022/12/20 08:54:54;;;;;;;6.43;4.23;;;;;;;1.62;nan;-23861.03;5030908;28;20567;-70
2022/12/20 08:57:19;;;;;;;6.40;4.27;;;;;;;1.72;nan;-23863.75;5032377;28;20199;-71
2022/12/20 08:59:44;;;;;;;6.43;3.63;;;;;;;2.17;nan;-23876.47;5031870;28;20167;-70
2022/12/20 09:02:10;;;;;;;8.17;4.43;;;;;;;2.06;nan;-23873.47;5032295;28;20175;-69
2022/12/20 09:04:35;;;;;;;7.77;4.87;;;;;;;2.16;nan;-23876.31;5032278;28;20219;-70
2022/12/20 09:07:01;;;;;;;8.90;3.90;;;;;;;2.03;nan;-23872.47;5032306;28;20269;-70
2022/12/20 09:09:27;;;;;;;5.90;3.70;;;;;;;1.81;nan;-23866.16;5032073;28;20543;-70
2022/12/20 09:11:53;;;;;;;6.90;4.67;;;;;;;2.46;nan;-23884.75;5031986;28;20171;-70
2022/12/20 09:14:18;;;;;;;7.97;4.87;;;;;;;2.23;nan;-23878.31;5032345;28;20176;-70
2022/12/20 09:16:44;;;;;;;7.37;3.93;;;;;;;2.48;nan;-23885.16;5031923;28;20303;-70
2022/12/20 09:19:11;;;;;;;7.33;3.67;;;;;;;2.29;nan;-23879.75;5030965;28;20172;-71
2022/12/20 09:21:37;;;;;;;6.57;4.27;;;;;;;2.70;nan;-23891.31;5032425;28;20179;-70
2022/12/20 09:24:02;;;;;;;6.17;3.77;;;;;;;2.88;nan;-23896.44;5031972;28;20235;-71
2022/12/20 09:26:29;;;;;;;8.17;3.53;;;;;;;2.48;nan;-23885.16;5032035;28;20191;-70
2022/12/20 09:28:54;;;;;;;6.30;3.07;;;;;;;2.26;nan;-23879.03;5031879;28;20687;-76
2022/12/20 09:31:22;;;;;;;7.67;3.53;;;;;;;2.51;nan;-23886.03;5031661;28;20175;-71
2022/12/20 09:33:48;;;;;;;7.87;4.33;;;;;;;2.31;nan;-23880.47;5031798;28;20175;-70
2022/12/20 09:36:17;;;;;;;6.10;4.30;;;;;;;2.66;nan;-23890.44;5032143;28;20214;-71
2022/12/20 09:38:45;;;;;;;5.63;3.57;;;;;;;2.93;nan;-23897.88;5031815;28;20236;-71
2022/12/20 09:41:26;;;;;;;5.33;3.73;;;;;;;2.98;nan;-23899.44;5031656;28;20178;-71
2022/12/20 09:43:52;;;;;;;7.20;3.20;;;;;;;3.23;nan;-23906.28;5031216;28;20163;-72
2022/12/20 09:46:18;;;;;;;4.70;3.00;;;;;;;2.86;nan;-23896.00;5030217;28;20262;-71
2022/12/20 09:48:45;;;;;;;6.20;3.37;;;;;;;3.08;nan;-23902.28;5031544;28;20597;-70
2022/12/20 09:51:26;;;;;;;6.50;2.97;;;;;;;3.18;nan;-23905.00;5031458;28;20658;-69
2022/12/20 09:54:06;;;;;;;5.13;3.00;;;;;;;3.26;nan;-23907.28;5032023;28;20178;-70
2022/12/20 09:56:41;;;;;;;4.47;3.37;;;;;;;3.54;nan;-23915.13;5031284;28;20563;-71
2022/12/20 09:59:19;;;;;;;4.70;3.60;;;;;;;3.45;nan;-23912.69;5029904;28;20612;-70
2022/12/20 10:01:47;;;;;;;4.57;3.57;;;;;;;3.84;nan;-23923.53;5031627;28;20175;-72
2022/12/20 10:04:19;;;;;;;4.67;2.77;;;;;;;3.30;nan;-23908.28;5032932;28;20653;-71
2022/12/20 10:07:18;;;;;;;6.77;4.07;;;;;;;3.68;nan;-23918.97;5031125;28;20210;-72
2022/12/20 10:10:14;;;;;;;5.07;3.30;;;;;;;3.81;nan;-23922.66;5036203;28;20687;-70
2022/12/20 10:12:53;;;;;;;6.87;3.30;;;;;;;3.97;nan;-23927.22;5031321;28;20229;-72
2022/12/20 10:15:25;;;;;;;6.53;4.07;;;;;;;4.04;nan;-23929.09;5031464;28;20179;-72
2022/12/20 10:18:32;;;;;;;9.50;4.30;;;;;;;4.09;nan;-23930.50;5031947;28;20269;-70
2022/12/20 10:21:13;;;;;;;4.73;3.27;;;;;;;3.70;nan;-23919.53;5012248;28;20240;-72
2022/12/20 10:23:45;;;;;;;8.57;3.47;;;;;;;3.80;nan;-23922.38;5030508;28;20175;-71
2022/12/20 10:26:12;;;;;;;8.90;4.43;;;;;;;4.24;nan;-23934.91;5031596;28;20254;-71
2022/12/20 10:28:38;;;;;;;5.73;3.97;;;;;;;3.95;nan;-23926.81;5031530;28;20184;-72
2022/12/20 10:31:12;;;;;;;4.13;3.47;;;;;;;4.39;nan;-23939.19;5029981;28;20805;-69
2022/12/20 10:33:38;;;;;;;4.13;3.40;;;;;;;4.56;nan;-23943.88;5030809;28;20548;-71
2022/12/20 10:36:31;;;;;;;7.07;4.60;;;;;;;4.54;nan;-23943.19;5030525;28;20264;-71
2022/12/20 10:38:59;;;;;;;6.57;2.97;;;;;;;4.41;nan;-23939.75;5030444;28;20195;-71
2022/12/20 10:41:47;;;;;;;7.03;3.63;;;;;;;4.29;nan;-23936.19;5030647;28;20192;-71
2022/12/20 10:44:25;;;;;;;7.40;4.63;;;;;;;3.98;nan;-23927.50;5031038;28;20245;-73
2022/12/20 10:46:57;;;;;;;4.70;3.43;;;;;;;4.41;nan;-23939.63;5030383;28;20178;-73
2022/12/20 10:49:39;;;;;;;4.87;3.97;;;;;;;4.53;nan;-23942.91;5030163;28;20603;-71
2022/12/20 10:52:08;;;;;;;4.30;3.10;;;;;;;4.74;nan;-23948.88;5031245;28;20587;-73
2022/12/20 10:54:41;;;;;;;6.60;3.70;;;;;;;4.33;nan;-23937.47;5031385;28;20229;-71
2022/12/20 10:57:19;;;;;;;5.00;3.33;;;;;;;4.69;nan;-23947.44;5030505;28;20704;-72
2022/12/20 10:59:52;;;;;;;9.33;4.20;;;;;;;4.74;nan;-23949.00;5028972;28;20168;-73
2022/12/20 11:02:27;;;;;;;5.27;4.13;;;;;;;4.84;nan;-23951.72;5031078;28;20283;-72
2022/12/20 11:05:09;;;;;;;11.87;3.80;;;;;;;5.13;nan;-23959.97;5031336;28;20303;-72
2022/12/20 11:07:36;;;;;;;8.60;4.60;;;;;;;5.23;nan;-23962.81;5032834;28;20171;-72
2022/12/20 11:10:23;;;;;;;7.17;4.03;;;;;;;5.01;nan;-23956.41;5032731;28;20179;-71
2022/12/20 11:12:57;;;;;;;4.03;3.47;;;;;;;5.03;nan;-23956.97;5033360;28;20190;-71
2022/12/20 11:15:29;;;;;;;8.57;3.50;;;;;;;5.12;nan;-23959.53;5035086;28;20267;-72
2022/12/20 11:17:57;;;;;;;3.67;3.17;;;;;;;4.95;nan;-23954.84;5034762;28;20670;-72
2022/12/20 11:20:29;;;;;;;7.37;4.47;;;;;;;4.96;nan;-23955.00;5034792;28;20195;-72
2022/12/20 11:23:00;;;;;;;4.13;3.27;;;;;;;5.13;nan;-23959.97;5038957;28;20187;-72
2022/12/20 11:25:34;;;;;;;11.70;4.40;;;;;;;5.31;nan;-23965.09;5033741;28;20231;-73
2022/12/20 11:28:37;;;;;;;5.83;3.73;;;;;;;5.31;nan;-23965.09;5033621;28;20179;-71
2022/12/20 11:31:36;;;;;;;3.80;3.00;;;;;;;5.40;nan;-23967.38;5034059;28;20191;-72
2022/12/20 11:34:08;;;;;;;6.53;3.40;;;;;;;5.34;nan;-23965.94;5034385;28;20247;-70
2022/12/20 11:36:58;;;;;;;7.60;3.53;;;;;;;5.26;nan;-23963.66;5033912;28;20702;-72
2022/12/20 11:39:32;;;;;;;7.00;2.97;;;;;;;5.19;nan;-23961.53;5032439;28;20610;-72
2022/12/20 11:41:58;;;;;;;4.37;3.50;;;;;;;4.89;nan;-23953.13;5033586;28;20155;-71
2022/12/20 11:44:23;;;;;;;3.90;3.40;;;;;;;4.65;nan;-23946.31;5033897;28;20160;-72
2022/12/20 11:47:16;;;;;;;9.07;3.27;;;;;;;4.63;nan;-23945.75;5033570;28;20253;-72
2022/12/20 11:49:47;;;;;;;5.97;3.20;;;;;;;4.70;nan;-23947.88;5034324;28;20175;-73
2022/12/20 11:52:33;;;;;;;4.37;3.97;;;;;;;4.36;nan;-23938.34;5034430;28;20218;-72
2022/12/20 11:55:11;;;;;;;5.00;3.10;;;;;;;4.98;nan;-23955.69;5034282;28;20241;-73
2022/12/20 11:57:49;;;;;;;3.53;3.07;;;;;;;4.69;nan;-23947.44;5034166;28;20225;-72
2022/12/20 12:00:24;;;;;;;5.03;3.23;;;;;;;4.79;nan;-23950.44;5036253;28;20261;-71
2022/12/20 12:03:00;;;;;;;4.27;3.77;;;;;;;4.68;nan;-23947.31;5033922;28;20191;-71
2022/12/20 12:05:34;;;;;;;4.73;3.33;;;;;;;4.73;nan;-23948.59;5034035;28;20262;-72